createdAt,value
2024-01-07T00:02:09.469Z,100581.20
2024-01-07T00:04:37.397Z,100592.60
2024-01-07T00:07:06.779Z,100584.00
2024-01-07T00:09:34.958Z,100588.60
2024-01-07T00:12:02.839Z,100581.20
2024-01-07T00:14:30.723Z,100587.60
2024-01-07T00:16:59.049Z,100594.20
2024-01-07T00:19:29.433Z,100589.40
2024-01-07T00:21:57.415Z,100593.40
2024-01-07T00:24:27.177Z,100591.60
2024-01-07T00:26:55.171Z,100596.80
2024-01-07T00:29:23.267Z,100594.60
2024-01-07T00:31:51.404Z,100602.00
2024-01-07T00:34:19.620Z,100598.60
2024-01-07T00:36:47.878Z,100602.40
2024-01-07T00:39:15.880Z,100605.00
2024-01-07T00:41:44.188Z,100605.00
2024-01-07T00:44:12.379Z,100602.80
2024-01-07T00:46:40.354Z,100606.20
2024-01-07T00:49:08.495Z,100613.20
2024-01-07T00:51:36.685Z,100613.20
2024-01-07T00:54:04.647Z,100615.60
2024-01-07T00:56:32.604Z,100619.60
2024-01-07T00:59:00.451Z,100621.80
2024-01-07T01:01:30.634Z,100620.20
2024-01-07T01:03:59.683Z,100624.40
2024-01-07T01:06:27.944Z,100635.00
2024-01-07T01:08:56.179Z,100628.80
2024-01-07T01:11:24.230Z,100631.60
2024-01-07T01:13:52.365Z,100632.20
2024-01-07T01:16:23.557Z,100634.80
2024-01-07T01:18:53.363Z,100637.20
2024-01-07T01:21:21.385Z,100635.40
2024-01-07T01:23:49.998Z,100639.20
2024-01-07T01:26:17.969Z,100637.80
2024-01-07T01:28:45.826Z,100633.40
2024-01-07T01:31:15.972Z,100636.00
2024-01-07T01:33:44.385Z,100633.20
2024-01-07T01:36:12.800Z,100638.60
2024-01-07T01:38:40.770Z,100635.60
2024-01-07T01:41:08.711Z,100634.20
2024-01-07T01:43:36.654Z,100631.00
2024-01-07T01:46:04.889Z,100636.20
2024-01-07T01:48:33.037Z,100631.00
2024-01-07T01:51:00.974Z,100630.80
2024-01-07T01:53:29.730Z,100627.60
2024-01-07T01:55:59.214Z,100628.20
2024-01-07T01:58:27.707Z,100625.60
2024-01-07T02:00:56.256Z,100629.40
2024-01-07T02:03:24.356Z,100625.80
2024-01-07T02:05:53.692Z,100621.40
2024-01-07T02:08:22.090Z,100622.40
2024-01-07T02:10:50.004Z,100627.20
2024-01-07T02:13:17.937Z,100622.00
2024-01-07T02:15:45.906Z,100618.40
2024-01-07T02:18:13.868Z,100617.00
2024-01-07T02:20:41.947Z,100610.60
2024-01-07T02:23:09.805Z,100608.60
2024-01-07T02:25:38.442Z,100611.40
2024-01-07T02:28:07.313Z,100614.60
2024-01-07T02:30:37.794Z,100613.40
2024-01-07T02:33:07.125Z,100610.40
2024-01-07T02:35:35.281Z,100610.60
2024-01-07T02:38:03.269Z,100608.20
2024-01-07T02:40:31.268Z,100607.60
2024-01-07T02:42:59.709Z,100607.20
2024-01-07T02:45:27.818Z,100602.80
2024-01-07T02:47:56.263Z,100601.40
2024-01-07T02:50:24.536Z,100605.00
2024-01-07T02:52:52.378Z,100607.20
2024-01-07T02:55:20.341Z,100609.80
2024-01-07T02:57:48.736Z,100610.80
2024-01-07T03:00:16.961Z,100610.60
2024-01-07T03:02:44.917Z,100613.60
2024-01-07T03:05:13.040Z,100612.60
2024-01-07T03:07:40.993Z,100612.60
2024-01-07T03:10:09.487Z,100612.00
2024-01-07T03:12:37.444Z,100618.40
2024-01-07T03:15:07.342Z,100615.80
2024-01-07T03:17:35.423Z,100614.20
2024-01-07T03:20:04.104Z,100617.20
2024-01-07T03:22:32.426Z,100622.00
2024-01-07T03:25:00.455Z,100617.60
2024-01-07T03:27:28.476Z,100615.60
2024-01-07T03:29:56.390Z,100618.60
2024-01-07T03:32:24.178Z,100617.60
2024-01-07T03:34:52.173Z,100617.40
2024-01-07T03:37:20.198Z,100621.00
2024-01-07T03:39:48.830Z,100619.20
2024-01-07T03:42:16.837Z,100622.20
2024-01-07T03:44:44.933Z,100623.00
2024-01-07T03:47:12.834Z,100623.20
2024-01-07T03:49:41.014Z,100628.00
2024-01-07T03:52:12.151Z,100629.00
2024-01-07T03:54:40.039Z,100627.00
2024-01-07T03:57:08.031Z,100635.60
2024-01-07T03:59:36.163Z,100630.80
2024-01-07T04:02:04.408Z,100629.60
2024-01-07T04:04:32.339Z,100635.80
2024-01-07T04:07:00.378Z,100635.60
2024-01-07T04:09:28.499Z,100632.00
2024-01-07T04:11:56.372Z,100630.60
2024-01-07T04:14:24.183Z,100635.20
2024-01-07T04:16:52.191Z,100634.60
2024-01-07T04:19:20.193Z,100631.00
2024-01-07T04:21:48.304Z,100634.20
2024-01-07T04:24:16.282Z,100635.40
2024-01-07T04:26:44.361Z,100630.00
2024-01-07T04:29:12.362Z,100630.60
2024-01-07T04:31:40.401Z,100628.80
2024-01-07T04:34:08.725Z,100634.00
2024-01-07T04:36:36.914Z,100637.80
2024-01-07T04:39:04.962Z,100639.60
2024-01-07T04:41:32.832Z,100642.60
2024-01-07T04:44:00.769Z,100639.00
2024-01-07T04:46:28.779Z,100638.20
2024-01-07T04:48:57.086Z,100646.40
2024-01-07T04:51:25.254Z,100642.40
2024-01-07T04:53:53.329Z,100643.20
2024-01-07T04:56:21.572Z,100643.20
2024-01-07T04:58:49.511Z,100647.80
2024-01-07T05:01:17.440Z,100648.00
2024-01-07T05:03:45.759Z,100642.20
2024-01-07T05:06:13.749Z,100647.80
2024-01-07T05:08:43.820Z,100642.60
2024-01-07T05:11:12.825Z,100646.20
2024-01-07T05:13:40.869Z,100647.00
2024-01-07T05:16:08.895Z,100657.80
2024-01-07T05:18:36.984Z,100656.20
2024-01-07T05:21:07.020Z,100662.20
2024-01-07T05:23:34.933Z,100659.20
2024-01-07T05:26:02.895Z,100659.20
2024-01-07T05:28:30.775Z,100665.00
2024-01-07T05:30:58.767Z,100663.80
2024-01-07T05:33:27.076Z,100667.60
2024-01-07T05:35:54.998Z,100668.60
2024-01-07T05:38:22.879Z,100669.00
2024-01-07T05:40:50.893Z,100670.20
2024-01-07T05:43:18.808Z,100667.40
2024-01-07T05:45:46.651Z,100675.00
2024-01-07T05:48:14.630Z,100674.40
2024-01-07T05:50:43.051Z,100673.80
2024-01-07T05:53:10.925Z,100674.60
2024-01-07T05:55:38.869Z,100671.00
2024-01-07T05:58:06.785Z,100669.80
2024-01-07T06:00:34.701Z,100668.80
2024-01-07T06:03:03.189Z,100661.60
2024-01-07T06:05:31.354Z,100671.20
2024-01-07T06:07:59.377Z,100668.40
2024-01-07T06:10:28.005Z,100671.20
2024-01-07T06:12:55.931Z,100665.80
2024-01-07T06:15:23.922Z,100670.60
2024-01-07T06:17:51.897Z,100678.60
2024-01-07T06:20:20.189Z,100672.20
2024-01-07T06:22:48.689Z,100669.80
2024-01-07T06:25:16.740Z,100676.80
2024-01-07T06:27:44.657Z,100676.40
2024-01-07T06:30:13.040Z,100683.20
2024-01-07T06:32:41.275Z,100685.60
2024-01-07T06:35:09.394Z,100689.40
2024-01-07T06:37:37.436Z,100690.20
2024-01-07T06:40:05.734Z,100696.20
2024-01-07T06:42:33.800Z,100694.20
2024-01-07T06:45:03.485Z,100704.00
2024-01-07T06:47:31.419Z,100707.20
2024-01-07T06:49:59.440Z,100705.80
2024-01-07T06:52:27.418Z,100712.20
2024-01-07T06:54:55.434Z,100711.80
2024-01-07T06:57:23.439Z,100712.20
2024-01-07T06:59:51.353Z,100716.20
2024-01-07T07:02:19.229Z,100717.20
2024-01-07T07:04:47.744Z,100720.00
2024-01-07T07:07:16.153Z,100721.40
2024-01-07T07:09:44.225Z,100720.00
2024-01-07T07:12:13.848Z,100720.60
2024-01-07T07:14:41.783Z,100728.40
2024-01-07T07:17:09.853Z,100722.80
2024-01-07T07:19:37.773Z,100730.00
2024-01-07T07:22:05.938Z,100733.60
2024-01-07T07:24:34.364Z,100735.80
2024-01-07T07:27:02.408Z,100734.20
2024-01-07T07:29:30.271Z,100723.20
2024-01-07T07:31:58.584Z,100728.60
2024-01-07T07:34:26.805Z,100730.20
2024-01-07T07:36:55.109Z,100735.00
2024-01-07T07:39:23.224Z,100739.00
2024-01-07T07:41:51.113Z,100737.00
2024-01-07T07:44:19.099Z,100743.40
2024-01-07T07:46:46.983Z,100738.40
2024-01-07T07:49:15.308Z,100739.80
2024-01-07T07:51:46.217Z,100743.20
2024-01-07T07:54:14.243Z,100748.60
2024-01-07T07:56:42.184Z,100753.00
2024-01-07T07:59:10.035Z,100756.00
2024-01-07T08:01:38.983Z,100755.80
2024-01-07T08:04:07.138Z,100747.20
2024-01-07T08:06:35.136Z,100750.00
2024-01-07T08:09:03.250Z,100750.40
2024-01-07T08:11:31.201Z,100758.80
2024-01-07T08:13:59.231Z,100756.00
2024-01-07T08:16:27.108Z,100764.40
2024-01-07T08:18:57.853Z,100771.80
2024-01-07T08:21:26.184Z,100766.80
2024-01-07T08:23:54.220Z,100769.00
2024-01-07T08:26:25.680Z,100767.40
2024-01-07T08:28:53.648Z,100766.00
2024-01-07T08:31:21.635Z,100772.00
2024-01-07T08:33:49.801Z,100780.00
2024-01-07T08:36:18.160Z,100786.40
2024-01-07T08:38:46.851Z,100787.60
2024-01-07T08:41:18.010Z,100780.60
2024-01-07T08:43:48.575Z,100779.40
2024-01-07T08:46:17.000Z,100781.20
2024-01-07T08:48:45.088Z,100779.60
2024-01-07T08:51:13.076Z,100779.40
2024-01-07T08:53:41.969Z,100785.80
2024-01-07T08:56:11.216Z,100782.80
2024-01-07T08:58:41.579Z,100780.60
2024-01-07T09:01:09.807Z,100787.60
2024-01-07T09:03:38.174Z,100794.20
2024-01-07T09:06:06.509Z,100796.80
2024-01-07T09:08:35.669Z,100790.60
2024-01-07T09:11:08.147Z,100794.20
2024-01-07T09:13:36.294Z,100791.20
2024-01-07T09:16:05.729Z,100789.80
2024-01-07T09:18:37.284Z,100794.60
2024-01-07T09:21:07.596Z,100796.60
2024-01-07T09:23:37.382Z,100800.80
2024-01-07T09:26:08.142Z,100799.20
2024-01-07T09:28:39.562Z,100796.80
2024-01-07T09:31:08.473Z,100796.00
2024-01-07T09:33:36.558Z,100787.20
2024-01-07T09:36:15.849Z,100783.40
2024-01-07T09:38:55.237Z,100783.60
2024-01-07T09:41:23.332Z,100783.60
2024-01-07T09:43:53.433Z,100778.00
2024-01-07T09:46:23.649Z,100781.00
2024-01-07T09:48:51.996Z,100785.80
2024-01-07T09:51:23.037Z,100784.80
2024-01-07T09:53:54.990Z,100781.60
2024-01-07T09:56:28.859Z,100782.00
2024-01-07T09:58:57.977Z,100776.80
2024-01-07T10:01:27.449Z,100785.00
2024-01-07T10:03:55.502Z,100789.60
2024-01-07T10:06:23.615Z,100789.20
2024-01-07T10:08:52.285Z,100784.20
2024-01-07T10:11:20.160Z,100781.20
2024-01-07T10:13:52.674Z,100788.40
2024-01-07T10:16:20.992Z,100786.60
2024-01-07T10:18:49.177Z,100789.40
2024-01-07T10:21:17.357Z,100785.00
2024-01-07T10:23:45.385Z,100787.20
2024-01-07T10:26:20.333Z,100787.40
2024-01-07T10:28:55.765Z,100777.40
2024-01-07T10:31:26.926Z,100778.00
2024-01-07T10:33:56.276Z,100776.00
2024-01-07T10:36:25.848Z,100778.00
2024-01-07T10:38:54.332Z,100771.00
2024-01-07T10:41:23.313Z,100775.60
2024-01-07T10:43:51.885Z,100773.00
2024-01-07T10:46:20.081Z,100769.60
2024-01-07T10:48:54.682Z,100773.00
2024-01-07T10:51:23.289Z,100775.80
2024-01-07T10:53:56.808Z,100777.20
2024-01-07T10:56:26.568Z,100783.00
2024-01-07T10:58:56.016Z,100778.00
2024-01-07T11:01:24.977Z,100781.80
2024-01-07T11:04:18.899Z,100786.40
2024-01-07T11:07:15.583Z,100786.00
2024-01-07T11:10:02.615Z,100785.80
2024-01-07T11:12:31.079Z,100786.00
2024-01-07T11:15:00.241Z,100785.20
2024-01-07T11:17:41.640Z,100786.80
2024-01-07T11:20:24.070Z,100783.20
2024-01-07T11:22:52.391Z,100775.00
2024-01-07T11:25:33.321Z,100776.40
2024-01-07T11:28:03.262Z,100779.40
2024-01-07T11:30:39.156Z,100774.40
2024-01-07T11:33:07.425Z,100769.20
2024-01-07T11:35:54.193Z,100773.20
2024-01-07T11:38:22.459Z,100771.40
2024-01-07T11:40:51.368Z,100775.20
2024-01-07T11:43:20.266Z,100776.00
2024-01-07T11:45:51.740Z,100772.40
2024-01-07T11:48:20.557Z,100772.20
2024-01-07T11:50:49.676Z,100769.60
2024-01-07T11:53:19.307Z,100771.00
2024-01-07T11:55:47.903Z,100772.60
2024-01-07T11:58:15.923Z,100774.80
2024-01-07T12:00:44.029Z,100785.40
2024-01-07T12:03:13.517Z,100788.40
2024-01-07T12:05:44.534Z,100785.80
2024-01-07T12:08:13.197Z,100780.60
2024-01-07T12:10:41.213Z,100780.20
2024-01-07T12:13:10.496Z,100781.40
2024-01-07T12:15:39.326Z,100776.60
2024-01-07T12:18:07.525Z,100781.00
2024-01-07T12:20:35.584Z,100783.80
2024-01-07T12:23:11.744Z,100787.40
2024-01-07T12:25:39.707Z,100792.80
2024-01-07T12:28:08.197Z,100794.00
2024-01-07T12:30:36.405Z,100795.20
2024-01-07T12:33:06.757Z,100799.40
2024-01-07T12:35:35.776Z,100804.40
2024-01-07T12:38:05.923Z,100803.60
2024-01-07T12:40:33.858Z,100800.80
2024-01-07T12:43:01.829Z,100797.60
2024-01-07T12:45:29.731Z,100803.60
2024-01-07T12:48:00.342Z,100799.00
2024-01-07T12:50:31.191Z,100802.60
2024-01-07T12:52:59.102Z,100809.80
2024-01-07T12:55:27.924Z,100810.60
2024-01-07T12:57:56.461Z,100805.60
2024-01-07T13:00:24.468Z,100805.40
2024-01-07T13:02:52.523Z,100809.00
2024-01-07T13:05:20.806Z,100811.20
2024-01-07T13:07:49.027Z,100818.40
2024-01-07T13:10:17.364Z,100817.40
2024-01-07T13:12:49.114Z,100817.00
2024-01-07T13:15:19.002Z,100819.00
2024-01-07T13:17:47.515Z,100820.40
2024-01-07T13:20:18.445Z,100824.00
2024-01-07T13:22:47.732Z,100826.80
2024-01-07T13:25:16.105Z,100836.60
2024-01-07T13:27:44.166Z,100834.80
2024-01-07T13:30:15.030Z,100837.60
2024-01-07T13:32:42.964Z,100836.80
2024-01-07T13:35:12.322Z,100835.60
2024-01-07T13:37:43.226Z,100836.60
2024-01-07T13:40:12.743Z,100837.80
2024-01-07T13:42:40.953Z,100845.40
2024-01-07T13:45:09.274Z,100846.80
2024-01-07T13:47:37.822Z,100842.60
2024-01-07T13:50:06.368Z,100848.00
2024-01-07T13:52:34.839Z,100848.60
2024-01-07T13:55:02.909Z,100849.00
2024-01-07T13:57:31.941Z,100851.40
2024-01-07T14:00:00.222Z,100841.80
2024-01-07T14:02:28.242Z,100844.20
2024-01-07T14:04:56.165Z,100854.20
2024-01-07T14:07:25.826Z,100856.00
2024-01-07T14:09:53.769Z,100860.80
2024-01-07T14:12:21.808Z,100863.00
2024-01-07T14:14:49.657Z,100873.40
2024-01-07T14:17:17.640Z,100867.80
2024-01-07T14:19:47.941Z,100882.40
2024-01-07T14:22:16.935Z,100880.60
2024-01-07T14:24:45.115Z,100877.80
2024-01-07T14:27:13.305Z,100882.20
2024-01-07T14:29:41.246Z,100879.20
2024-01-07T14:32:09.746Z,100880.60
2024-01-07T14:34:45.412Z,100877.60
2024-01-07T14:37:14.414Z,100879.60
2024-01-07T14:39:42.710Z,100879.00
2024-01-07T14:42:10.676Z,100881.20
2024-01-07T14:44:47.817Z,100881.60
2024-01-07T14:47:19.449Z,100882.80
2024-01-07T14:49:47.646Z,100888.80
2024-01-07T14:52:15.822Z,100891.40
2024-01-07T14:54:46.310Z,100893.80
2024-01-07T14:57:14.255Z,100894.20
2024-01-07T14:59:42.223Z,100895.20
2024-01-07T15:02:12.382Z,100900.60
2024-01-07T15:04:42.789Z,100899.60
2024-01-07T15:07:10.849Z,100907.20
2024-01-07T15:09:42.851Z,100904.00
2024-01-07T15:12:13.715Z,100905.80
2024-01-07T15:14:43.130Z,100908.80
2024-01-07T15:17:13.917Z,100907.40
2024-01-07T15:19:42.588Z,100912.20
2024-01-07T15:22:11.108Z,100919.60
2024-01-07T15:24:39.016Z,100922.20
2024-01-07T15:27:10.342Z,100919.60
2024-01-07T15:29:38.323Z,100918.80
2024-01-07T15:32:06.896Z,100923.60
2024-01-07T15:34:35.534Z,100921.00
2024-01-07T15:37:03.730Z,100921.60
2024-01-07T15:39:31.600Z,100925.20
2024-01-07T15:42:01.206Z,100933.60
2024-01-07T15:44:29.438Z,100934.20
2024-01-07T15:46:57.408Z,100939.40
2024-01-07T15:49:25.370Z,100941.40
2024-01-07T15:51:53.469Z,100950.20
2024-01-07T15:54:21.496Z,100945.20
2024-01-07T15:56:49.522Z,100943.20
2024-01-07T15:59:18.857Z,100939.80
2024-01-07T16:01:48.389Z,100950.40
2024-01-07T16:04:18.049Z,100953.20
2024-01-07T16:06:48.768Z,100961.20
2024-01-07T16:09:16.708Z,100962.20
2024-01-07T16:11:46.779Z,100962.00
2024-01-07T16:14:14.937Z,100960.80
2024-01-07T16:16:43.015Z,100972.60
2024-01-07T16:19:12.248Z,100967.20
2024-01-07T16:21:41.393Z,100971.40
2024-01-07T16:24:09.724Z,100976.40
2024-01-07T16:26:38.126Z,100977.40
2024-01-07T16:29:06.104Z,100976.40
2024-01-07T16:31:36.368Z,100979.00
2024-01-07T16:34:05.613Z,100981.60
2024-01-07T16:36:33.841Z,100985.00
2024-01-07T16:39:03.830Z,100988.80
2024-01-07T16:41:31.964Z,100986.80
2024-01-07T16:44:00.049Z,100990.20
2024-01-07T16:46:28.034Z,100989.20
2024-01-07T16:50:18.284Z,100990.60
2024-01-07T16:51:46.742Z,100994.60
2024-01-07T16:54:14.888Z,100995.00
2024-01-07T16:56:43.536Z,100997.40
2024-01-07T16:59:11.824Z,101004.00
2024-01-07T17:01:40.168Z,101007.80
2024-01-07T17:04:08.370Z,101007.60
2024-01-07T17:06:36.568Z,101019.80
2024-01-07T17:09:04.806Z,101022.60
2024-01-07T17:11:35.566Z,101023.40
2024-01-07T17:14:03.768Z,101017.80
2024-01-07T17:16:32.242Z,101024.00
2024-01-07T17:19:00.992Z,101022.60
2024-01-07T17:21:29.464Z,101030.00
2024-01-07T17:23:57.833Z,101029.40
2024-01-07T17:26:26.009Z,101036.60
2024-01-07T17:28:54.036Z,101034.20
2024-01-07T17:31:21.984Z,101039.60
2024-01-07T17:33:51.047Z,101043.60
2024-01-07T17:36:20.447Z,101049.20
2024-01-07T17:38:48.832Z,101050.40
2024-01-07T17:41:16.828Z,101062.20
2024-01-07T17:43:45.254Z,101062.20
2024-01-07T17:46:15.708Z,101059.00
2024-01-07T17:48:44.097Z,101072.60
2024-01-07T17:51:13.015Z,101068.80
2024-01-07T17:53:43.320Z,101073.40
2024-01-07T17:56:20.145Z,101073.20
2024-01-07T17:58:50.795Z,101081.20
2024-01-07T18:01:20.145Z,101080.40
2024-01-07T18:03:49.249Z,101077.20
2024-01-07T18:06:19.238Z,101078.20
2024-01-07T18:08:52.566Z,101088.40
2024-01-07T18:11:28.518Z,101088.00
2024-01-07T18:13:57.403Z,101104.00
2024-01-07T18:16:25.298Z,101108.40
2024-01-07T18:18:53.542Z,101106.00
2024-01-07T18:21:21.611Z,101107.40
2024-01-07T18:23:49.566Z,101113.40
2024-01-07T18:26:17.578Z,101108.40
2024-01-07T18:28:46.540Z,101118.20
2024-01-07T18:31:15.987Z,101121.80
2024-01-07T18:33:44.001Z,101118.80
2024-01-07T18:36:13.505Z,101126.80
2024-01-07T18:38:42.343Z,101120.20
2024-01-07T18:41:11.269Z,101120.60
2024-01-07T18:43:39.542Z,101119.20
2024-01-07T18:46:11.273Z,101124.60
2024-01-07T18:48:42.869Z,101122.60
2024-01-07T18:51:11.782Z,101130.00
2024-01-07T18:53:40.223Z,101125.60
2024-01-07T18:56:09.171Z,101126.60
2024-01-07T18:58:40.074Z,101131.00
2024-01-07T19:01:08.696Z,101136.00
2024-01-07T19:03:38.944Z,101144.60
2024-01-07T19:06:07.554Z,101141.40
2024-01-07T19:08:36.738Z,101144.80
2024-01-07T19:11:04.826Z,101149.80
2024-01-07T19:13:34.274Z,101151.20
2024-01-07T19:16:02.667Z,101156.80
2024-01-07T19:18:34.040Z,101154.60
2024-01-07T19:21:02.150Z,101161.60
2024-01-07T19:23:30.158Z,101159.80
2024-01-07T19:25:58.142Z,101168.60
2024-01-07T19:28:25.926Z,101167.60
2024-01-07T19:30:58.468Z,101171.60
2024-01-07T19:33:29.285Z,101170.20
2024-01-07T19:35:59.552Z,101176.20
2024-01-07T19:38:30.893Z,101174.40
2024-01-07T19:40:59.075Z,101170.80
2024-01-07T19:43:27.626Z,101173.60
2024-01-07T19:45:55.873Z,101174.40
2024-01-07T19:48:23.885Z,101169.00
2024-01-07T19:50:52.172Z,101176.60
2024-01-07T19:53:30.055Z,101173.80
2024-01-07T19:56:03.532Z,101181.00
2024-01-07T19:58:32.044Z,101188.40
2024-01-07T20:00:59.972Z,101190.60
2024-01-07T20:03:28.434Z,101192.60
2024-01-07T20:05:56.544Z,101204.60
2024-01-07T20:08:25.081Z,101203.60
2024-01-07T20:10:54.204Z,101203.60
2024-01-07T20:13:23.806Z,101210.40
2024-01-07T20:15:51.950Z,101214.20
2024-01-07T20:18:20.122Z,101218.00
2024-01-07T20:20:48.261Z,101217.80
2024-01-07T20:23:16.620Z,101218.60
2024-01-07T20:25:47.790Z,101223.40
2024-01-07T20:28:15.708Z,101221.20
2024-01-07T20:30:43.834Z,101224.00
2024-01-07T20:33:13.560Z,101222.40
2024-01-07T20:35:41.602Z,101225.40
2024-01-07T20:38:10.465Z,101225.80
2024-01-07T20:40:38.989Z,101225.40
2024-01-07T20:43:11.458Z,101228.60
2024-01-07T20:45:39.769Z,101229.00
2024-01-07T20:48:08.267Z,101236.80
2024-01-07T20:50:38.873Z,101240.00
2024-01-07T20:53:07.382Z,101235.40
2024-01-07T20:55:35.988Z,101237.60
2024-01-07T20:58:04.202Z,101236.00
2024-01-07T21:00:32.172Z,101239.60
2024-01-07T21:03:00.089Z,101241.40
2024-01-07T21:05:29.235Z,101241.00
2024-01-07T21:07:57.310Z,101242.00
2024-01-07T21:10:25.485Z,101247.60
2024-01-07T21:12:54.354Z,101242.80
2024-01-07T21:15:23.524Z,101246.40
2024-01-07T21:17:51.982Z,101242.80
2024-01-07T21:20:19.989Z,101245.80
2024-01-07T21:22:47.935Z,101255.40
2024-01-07T21:25:18.279Z,101255.00
2024-01-07T21:27:46.258Z,101253.20
2024-01-07T21:30:14.218Z,101256.20
2024-01-07T21:32:43.615Z,101256.60
2024-01-07T21:35:11.791Z,101258.40
2024-01-07T21:37:39.940Z,101263.00
2024-01-07T21:40:09.005Z,101269.40
2024-01-07T21:42:38.555Z,101269.00
2024-01-07T21:45:06.839Z,101270.80
2024-01-07T21:47:35.359Z,101278.60
2024-01-07T21:50:03.690Z,101275.80
2024-01-07T21:52:32.326Z,101271.00
2024-01-07T21:55:00.767Z,101278.80
2024-01-07T21:57:29.324Z,101275.60
2024-01-07T21:59:57.758Z,101281.20
2024-01-07T22:02:26.381Z,101276.40
2024-01-07T22:04:55.070Z,101291.40
2024-01-07T22:07:23.421Z,101289.20
2024-01-07T22:09:52.958Z,101291.40
2024-01-07T22:12:22.760Z,101285.00
2024-01-07T22:14:50.901Z,101293.20
2024-01-07T22:17:21.406Z,101299.80
2024-01-07T22:19:51.043Z,101304.00
2024-01-07T22:22:19.099Z,101307.80
2024-01-07T22:24:47.012Z,101307.20
2024-01-07T22:27:14.958Z,101304.20
2024-01-07T22:29:43.668Z,101307.40
2024-01-07T22:32:12.244Z,101310.00
2024-01-07T22:34:41.972Z,101309.60
2024-01-07T22:37:10.412Z,101318.40
2024-01-07T22:39:40.813Z,101315.00
2024-01-07T22:42:09.246Z,101311.80
2024-01-07T22:44:37.709Z,101315.60
2024-01-07T22:47:07.450Z,101322.40
2024-01-07T22:49:35.756Z,101327.80
2024-01-07T22:52:06.115Z,101332.60
2024-01-07T22:54:38.090Z,101335.00
2024-01-07T22:57:07.140Z,101334.40
2024-01-07T22:59:35.388Z,101339.40
2024-01-07T23:02:06.607Z,101341.20
2024-01-07T23:04:34.718Z,101339.40
2024-01-07T23:07:02.663Z,101350.60
2024-01-07T23:09:30.556Z,101347.60
2024-01-07T23:11:58.743Z,101348.00
2024-01-07T23:14:28.619Z,101349.40
2024-01-07T23:16:59.654Z,101356.60
2024-01-07T23:19:28.178Z,101360.00
2024-01-07T23:21:57.077Z,101359.00
2024-01-07T23:24:25.256Z,101354.60
2024-01-07T23:26:55.362Z,101359.40
2024-01-07T23:29:23.374Z,101362.00
2024-01-07T23:31:53.231Z,101354.80
2024-01-07T23:34:22.136Z,101356.40
2024-01-07T23:36:50.490Z,101354.40
2024-01-07T23:39:19.093Z,101356.00
2024-01-07T23:41:47.211Z,101360.80
2024-01-07T23:44:15.266Z,101360.80
2024-01-07T23:46:43.309Z,101364.20
2024-01-07T23:49:14.147Z,101358.60
2024-01-07T23:51:42.968Z,101362.60
2024-01-07T23:54:11.003Z,101362.60
2024-01-07T23:56:43.787Z,101357.80
2024-01-07T23:59:11.945Z,101368.40
